Time;durP1;ratioP1;P1;durP2;ratioP2;P2;SDS_P1;SDS_P2;PMS_P1;PMS_P2;Temp;Humidity;BMP_temperature;BMP_pressure;BME280_temperature;BME280_humidity;BME280_pressure;Samples;Min_cycle;Max_cycle;Signal;HPM_P1;HPM_P2
2022/03/15 00:00:05;;;;;;;35.83;18.27;;;;;;;;;;5084654;28;20051;-80
2022/03/15 00:02:31;;;;;;;31.33;17.65;;;;;;;;;;5101868;28;20056;-80
2022/03/15 00:04:57;;;;;;;31.23;17.33;;;;;;;;;;5084981;28;20043;-79
2022/03/15 00:07:23;;;;;;;32.55;16.77;;;;;;;;;;5103559;28;20104;-80
2022/03/15 00:09:50;;;;;;;28.20;17.08;;;;;;;;;;5084998;28;20101;-80
2022/03/15 00:12:16;;;;;;;30.90;17.48;;;;;;;;;;5084615;28;20055;-80
2022/03/15 00:14:42;;;;;;;32.13;17.25;;;;;;;;;;5084396;28;20351;-80
2022/03/15 00:17:08;;;;;;;34.75;17.83;;;;;;;;;;5084996;28;20040;-81
2022/03/15 00:19:34;;;;;;;34.72;18.38;;;;;;;;;;5084377;28;20054;-81
2022/03/15 00:22:01;;;;;;;38.78;17.95;;;;;;;;;;5084235;28;20351;-80
2022/03/15 00:24:27;;;;;;;37.25;18.58;;;;;;;;;;5085316;28;20032;-84
2022/03/15 00:26:54;;;;;;;34.55;18.08;;;;;;;;;;5102287;28;20040;-84
2022/03/15 00:29:22;;;;;;;32.97;17.35;;;;;;;;;;5120407;28;20062;-81
2022/03/15 00:31:48;;;;;;;31.42;17.02;;;;;;;;;;5084724;28;20060;-80
2022/03/15 00:34:14;;;;;;;30.40;18.25;;;;;;;;;;5100805;28;20071;-80
2022/03/15 00:36:40;;;;;;;29.60;17.23;;;;;;;;;;5115552;28;20055;-80
2022/03/15 00:39:06;;;;;;;33.63;16.60;;;;;;;;;;5098814;28;20351;-82
2022/03/15 00:41:33;;;;;;;29.75;17.40;;;;;;;;;;5082452;28;20051;-80
2022/03/15 00:43:59;;;;;;;33.58;18.60;;;;;;;;;;5082958;28;20040;-80
2022/03/15 00:46:25;;;;;;;31.35;17.70;;;;;;;;;;5088743;28;20443;-82
2022/03/15 00:48:51;;;;;;;30.67;17.35;;;;;;;;;;5111927;28;20043;-83
2022/03/15 00:51:16;;;;;;;34.22;18.52;;;;;;;;;;5101468;28;20062;-82
2022/03/15 00:53:42;;;;;;;35.95;19.88;;;;;;;;;;5102827;28;20020;-83
2022/03/15 00:56:08;;;;;;;29.63;17.50;;;;;;;;;;5113044;28;20036;-83
2022/03/15 00:58:34;;;;;;;37.10;18.55;;;;;;;;;;5101793;28;20036;-83
2022/03/15 01:01:00;;;;;;;34.35;19.30;;;;;;;;;;5119595;28;20070;-84
2022/03/15 01:03:26;;;;;;;33.88;18.95;;;;;;;;;;5084705;28;20051;-84
2022/03/15 01:05:53;;;;;;;36.92;19.15;;;;;;;;;;5086955;28;20093;-81
2022/03/15 01:08:19;;;;;;;34.03;19.45;;;;;;;;;;5100682;28;20027;-82
2022/03/15 01:10:45;;;;;;;33.97;19.08;;;;;;;;;;5100268;28;20059;-78
2022/03/15 01:13:11;;;;;;;36.38;19.25;;;;;;;;;;5117270;28;20039;-80
2022/03/15 01:15:43;;;;;;;37.30;19.55;;;;;;;;;;5098970;28;20050;-79
2022/03/15 01:18:09;;;;;;;37.95;19.05;;;;;;;;;;5084965;28;20046;-83
2022/03/15 01:20:35;;;;;;;33.75;19.88;;;;;;;;;;5081860;28;20036;-79
2022/03/15 01:23:02;;;;;;;32.63;19.15;;;;;;;;;;5082300;28;20485;-81
2022/03/15 01:25:32;;;;;;;34.33;19.58;;;;;;;;;;5101029;28;20055;-82
2022/03/15 01:27:58;;;;;;;44.47;21.20;;;;;;;;;;5101747;28;20032;-82
2022/03/15 01:30:24;;;;;;;37.30;20.55;;;;;;;;;;5120312;28;20050;-82
2022/03/15 01:32:51;;;;;;;37.42;20.50;;;;;;;;;;5118226;28;20043;-82
2022/03/15 01:35:21;;;;;;;37.88;20.55;;;;;;;;;;5102132;28;20039;-81
2022/03/15 01:37:47;;;;;;;42.50;21.48;;;;;;;;;;5093501;28;20046;-80
2022/03/15 01:40:22;;;;;;;40.75;20.13;;;;;;;;;;5111939;28;20046;-82
2022/03/15 01:42:48;;;;;;;38.05;19.88;;;;;;;;;;5113661;28;20111;-80
2022/03/15 01:45:14;;;;;;;32.22;19.20;;;;;;;;;;5128727;28;20044;-80
2022/03/15 01:47:44;;;;;;;40.63;20.25;;;;;;;;;;5109736;28;20055;-82
2022/03/15 01:50:10;;;;;;;39.88;22.00;;;;;;;;;;5107952;28;20036;-85
2022/03/15 01:52:37;;;;;;;30.38;18.58;;;;;;;;;;5106880;28;20056;-81
2022/03/15 01:55:04;;;;;;;37.70;20.20;;;;;;;;;;5106992;28;20032;-81
2022/03/15 01:57:30;;;;;;;36.55;20.33;;;;;;;;;;5105823;28;20040;-81
2022/03/15 01:59:56;;;;;;;37.47;19.35;;;;;;;;;;5083893;28;20047;-82
2022/03/15 02:02:22;;;;;;;38.45;20.85;;;;;;;;;;5083038;28;20109;-81
2022/03/15 02:04:48;;;;;;;36.03;19.00;;;;;;;;;;5083310;28;20058;-82
2022/03/15 02:07:14;;;;;;;32.38;19.25;;;;;;;;;;5082701;28;20115;-80
2022/03/15 02:09:41;;;;;;;33.40;19.02;;;;;;;;;;5083437;28;20032;-81
2022/03/15 02:12:10;;;;;;;33.72;19.35;;;;;;;;;;5083451;28;20039;-80
2022/03/15 02:14:43;;;;;;;33.88;20.10;;;;;;;;;;5101864;28;20055;-81
2022/03/15 02:17:10;;;;;;;37.35;20.42;;;;;;;;;;5118046;28;20036;-79
2022/03/15 02:19:39;;;;;;;42.08;20.83;;;;;;;;;;5107248;28;20047;-79
2022/03/15 02:22:05;;;;;;;40.50;20.83;;;;;;;;;;5105141;28;20036;-79
2022/03/15 02:24:35;;;;;;;37.55;20.90;;;;;;;;;;5103900;28;20482;-81
2022/03/15 02:27:01;;;;;;;37.70;19.45;;;;;;;;;;5084009;28;20043;-81
2022/03/15 02:29:33;;;;;;;36.92;19.38;;;;;;;;;;5101598;28;20106;-81
2022/03/15 02:32:00;;;;;;;34.33;19.70;;;;;;;;;;5117181;28;20043;-82
2022/03/15 02:34:26;;;;;;;35.10;19.63;;;;;;;;;;5117028;28;20036;-81
2022/03/15 02:36:52;;;;;;;48.45;20.40;;;;;;;;;;5083774;28;20042;-81
2022/03/15 02:39:18;;;;;;;33.17;19.25;;;;;;;;;;5083412;28;20035;-81
2022/03/15 02:41:44;;;;;;;36.95;20.13;;;;;;;;;;5083033;28;20032;-81
2022/03/15 02:44:11;;;;;;;37.45;19.17;;;;;;;;;;5083171;28;20046;-81
2022/03/15 02:46:39;;;;;;;38.33;19.67;;;;;;;;;;5101692;28;20118;-81
2022/03/15 02:49:09;;;;;;;33.78;19.40;;;;;;;;;;5100679;28;20040;-80
2022/03/15 02:51:36;;;;;;;38.45;19.25;;;;;;;;;;5099983;28;20093;-80
2022/03/15 02:54:11;;;;;;;39.85;20.13;;;;;;;;;;5102585;28;20055;-81
2022/03/15 02:56:46;;;;;;;36.53;19.67;;;;;;;;;;5094031;28;20349;-80
2022/03/15 02:59:19;;;;;;;36.08;19.55;;;;;;;;;;5112973;28;20448;-80
2022/03/15 03:01:46;;;;;;;34.97;18.80;;;;;;;;;;5113000;28;20173;-79
2022/03/15 03:04:14;;;;;;;33.50;18.77;;;;;;;;;;5096705;28;20071;-81
2022/03/15 03:06:43;;;;;;;35.60;19.55;;;;;;;;;;5111120;28;20478;-81
2022/03/15 03:09:09;;;;;;;37.00;19.23;;;;;;;;;;5092630;28;20043;-79
2022/03/15 03:11:35;;;;;;;35.47;18.65;;;;;;;;;;5110233;28;20036;-81
2022/03/15 03:14:02;;;;;;;33.53;20.17;;;;;;;;;;5091275;28;20043;-82
2022/03/15 03:16:28;;;;;;;39.63;19.70;;;;;;;;;;5107985;28;20032;-81
2022/03/15 03:18:57;;;;;;;36.85;19.10;;;;;;;;;;5091650;28;20074;-82
2022/03/15 03:21:25;;;;;;;34.50;19.08;;;;;;;;;;5108213;28;20164;-83
2022/03/15 03:23:57;;;;;;;37.13;18.63;;;;;;;;;;5109879;28;20436;-79
2022/03/15 03:26:30;;;;;;;33.42;18.63;;;;;;;;;;5130675;28;20138;-81
2022/03/15 03:28:57;;;;;;;32.83;18.95;;;;;;;;;;5110900;28;20043;-82
2022/03/15 03:31:24;;;;;;;37.50;19.35;;;;;;;;;;5127103;28;20049;-82
2022/03/15 03:33:53;;;;;;;36.83;19.45;;;;;;;;;;5110465;28;20096;-82
2022/03/15 03:36:19;;;;;;;31.83;18.48;;;;;;;;;;5108204;28;20032;-82
2022/03/15 03:38:45;;;;;;;34.55;18.45;;;;;;;;;;5091211;28;20036;-82
2022/03/15 03:41:12;;;;;;;34.65;18.85;;;;;;;;;;5091458;28;20068;-82
2022/03/15 03:43:38;;;;;;;33.40;18.88;;;;;;;;;;5109172;28;20036;-82
2022/03/15 03:46:06;;;;;;;40.83;19.52;;;;;;;;;;5091985;28;20426;-81
2022/03/15 03:48:36;;;;;;;35.65;18.27;;;;;;;;;;5109091;28;20047;-81
2022/03/15 03:51:05;;;;;;;36.65;19.35;;;;;;;;;;5103370;28;20054;-80
2022/03/15 03:53:31;;;;;;;39.33;19.17;;;;;;;;;;5101123;28;20032;-80
2022/03/15 03:55:58;;;;;;;37.15;19.73;;;;;;;;;;5100474;28;20047;-80
2022/03/15 03:58:25;;;;;;;40.83;18.65;;;;;;;;;;5118258;28;20059;-80
2022/03/15 04:00:51;;;;;;;34.35;17.98;;;;;;;;;;5083091;28;20035;-79
2022/03/15 04:03:17;;;;;;;34.25;18.55;;;;;;;;;;5101237;28;20048;-81
2022/03/15 04:05:47;;;;;;;34.40;19.35;;;;;;;;;;5091747;28;20096;-81
2022/03/15 04:08:13;;;;;;;36.53;19.02;;;;;;;;;;5108584;28;20040;-80
2022/03/15 04:10:41;;;;;;;34.38;19.00;;;;;;;;;;5108859;28;20036;-82
2022/03/15 04:13:10;;;;;;;36.15;18.48;;;;;;;;;;5109605;28;20062;-81
2022/03/15 04:15:36;;;;;;;34.72;19.30;;;;;;;;;;5108740;28;20071;-82
2022/03/15 04:18:03;;;;;;;30.90;17.63;;;;;;;;;;5091370;28;20040;-82
2022/03/15 04:20:29;;;;;;;30.90;17.80;;;;;;;;;;5125799;28;20044;-82
2022/03/15 04:22:55;;;;;;;38.13;18.70;;;;;;;;;;5125590;28;20048;-82
2022/03/15 04:25:22;;;;;;;37.58;19.30;;;;;;;;;;5092107;28;20337;-81
2022/03/15 04:27:49;;;;;;;34.95;19.08;;;;;;;;;;5094293;28;20051;-79
2022/03/15 04:30:15;;;;;;;37.38;19.15;;;;;;;;;;5114154;28;20032;-79
2022/03/15 04:32:42;;;;;;;37.92;19.50;;;;;;;;;;5112801;28;20036;-83
2022/03/15 04:35:08;;;;;;;39.72;18.50;;;;;;;;;;5091922;28;20036;-81
2022/03/15 04:37:34;;;;;;;34.22;18.45;;;;;;;;;;5109549;28;20044;-81
2022/03/15 04:40:01;;;;;;;37.47;19.55;;;;;;;;;;5091423;28;20032;-81
2022/03/15 04:42:27;;;;;;;34.78;18.77;;;;;;;;;;5090949;28;20168;-81
2022/03/15 04:44:54;;;;;;;40.30;19.50;;;;;;;;;;5107163;28;20078;-81
2022/03/15 04:47:21;;;;;;;35.45;18.38;;;;;;;;;;5124598;28;20051;-81
2022/03/15 04:49:47;;;;;;;35.40;19.13;;;;;;;;;;5108934;28;20056;-81
2022/03/15 04:52:13;;;;;;;37.40;18.77;;;;;;;;;;5107769;28;20040;-82
2022/03/15 04:54:40;;;;;;;42.90;19.58;;;;;;;;;;5090512;28;20040;-82
2022/03/15 04:57:07;;;;;;;37.65;19.55;;;;;;;;;;5125766;28;20032;-82
2022/03/15 04:59:33;;;;;;;35.97;19.83;;;;;;;;;;5108234;28;20122;-82
2022/03/15 05:02:02;;;;;;;34.58;19.88;;;;;;;;;;5107844;28;20088;-82
2022/03/15 05:04:29;;;;;;;38.95;20.10;;;;;;;;;;5090129;28;20067;-80
2022/03/15 05:06:56;;;;;;;36.65;19.08;;;;;;;;;;5108605;28;20365;-80
2022/03/15 05:09:22;;;;;;;39.30;20.77;;;;;;;;;;5113108;28;20069;-80
2022/03/15 05:11:48;;;;;;;37.88;19.63;;;;;;;;;;5111720;28;20036;-80
2022/03/15 05:14:14;;;;;;;37.70;19.55;;;;;;;;;;5124679;28;20158;-81
2022/03/15 05:16:45;;;;;;;38.90;19.23;;;;;;;;;;5108222;28;20067;-81
2022/03/15 05:19:18;;;;;;;37.45;19.85;;;;;;;;;;5106740;28;20043;-82
2022/03/15 05:21:44;;;;;;;30.30;18.15;;;;;;;;;;5085503;28;20075;-82
2022/03/15 05:24:10;;;;;;;34.30;18.98;;;;;;;;;;5082705;28;20032;-80
2022/03/15 05:26:36;;;;;;;38.05;19.42;;;;;;;;;;5118243;28;20036;-79
2022/03/15 05:29:02;;;;;;;35.08;19.55;;;;;;;;;;5083763;28;20054;-82
2022/03/15 05:31:29;;;;;;;36.13;19.33;;;;;;;;;;5086283;28;20102;-82
2022/03/15 05:33:55;;;;;;;34.38;18.23;;;;;;;;;;5085182;28;20036;-83
2022/03/15 05:36:21;;;;;;;40.13;19.38;;;;;;;;;;5089478;28;20108;-82
2022/03/15 05:38:47;;;;;;;34.75;19.20;;;;;;;;;;5092665;28;20035;-82
2022/03/15 05:41:13;;;;;;;35.03;18.35;;;;;;;;;;5111587;28;20047;-81
2022/03/15 05:43:39;;;;;;;32.13;18.25;;;;;;;;;;5096885;28;20069;-81
2022/03/15 05:46:05;;;;;;;33.97;18.35;;;;;;;;;;5096727;28;20050;-80
2022/03/15 05:48:31;;;;;;;37.33;18.23;;;;;;;;;;5096306;28;20059;-81
2022/03/15 05:50:58;;;;;;;39.20;18.60;;;;;;;;;;5096100;28;20060;-81
2022/03/15 05:53:24;;;;;;;38.05;18.73;;;;;;;;;;5093676;28;20066;-81
2022/03/15 05:55:50;;;;;;;33.90;18.52;;;;;;;;;;5092454;28;20039;-80
2022/03/15 05:58:16;;;;;;;34.72;18.45;;;;;;;;;;5111520;28;20067;-80
2022/03/15 06:00:45;;;;;;;34.08;18.20;;;;;;;;;;5093722;28;20043;-81
2022/03/15 06:03:11;;;;;;;30.13;17.80;;;;;;;;;;5125720;28;20058;-80
2022/03/15 06:05:37;;;;;;;39.40;19.90;;;;;;;;;;5089132;28;20040;-78
2022/03/15 06:08:04;;;;;;;36.72;18.58;;;;;;;;;;5106006;28;20040;-78
2022/03/15 06:10:30;;;;;;;32.58;17.77;;;;;;;;;;5089224;28;20043;-78
2022/03/15 06:12:57;;;;;;;41.13;19.40;;;;;;;;;;5104243;28;20039;-79
2022/03/15 06:15:23;;;;;;;33.90;19.27;;;;;;;;;;5087552;28;20036;-80
2022/03/15 06:17:50;;;;;;;38.70;20.02;;;;;;;;;;5100872;28;20036;-80
2022/03/15 06:20:18;;;;;;;35.00;19.80;;;;;;;;;;5084194;28;20043;-79
2022/03/15 06:22:44;;;;;;;37.03;19.58;;;;;;;;;;5089203;28;20082;-78
2022/03/15 06:25:10;;;;;;;38.05;19.63;;;;;;;;;;5130168;28;20052;-79
2022/03/15 06:27:36;;;;;;;34.78;18.60;;;;;;;;;;5087558;28;20059;-79
2022/03/15 06:30:04;;;;;;;36.92;18.42;;;;;;;;;;5082963;28;20036;-79
2022/03/15 06:32:30;;;;;;;35.42;18.05;;;;;;;;;;5100347;28;20032;-79
2022/03/15 06:34:58;;;;;;;35.85;19.42;;;;;;;;;;5082406;28;20424;-82
2022/03/15 06:37:24;;;;;;;32.33;17.83;;;;;;;;;;5081931;28;20044;-83
2022/03/15 06:39:50;;;;;;;37.38;18.20;;;;;;;;;;5099538;28;20047;-81
2022/03/15 06:42:17;;;;;;;34.60;18.38;;;;;;;;;;5122648;28;20040;-80
2022/03/15 06:44:43;;;;;;;30.67;18.08;;;;;;;;;;5108211;28;20040;-81
2022/03/15 06:47:10;;;;;;;33.28;17.80;;;;;;;;;;5085757;28;20040;-80
2022/03/15 06:49:36;;;;;;;36.25;19.23;;;;;;;;;;5085394;28;20043;-80
2022/03/15 06:52:02;;;;;;;34.90;18.67;;;;;;;;;;5123949;28;20028;-82
2022/03/15 06:54:28;;;;;;;31.42;17.95;;;;;;;;;;5082327;28;20123;-81
2022/03/15 06:56:56;;;;;;;36.15;19.25;;;;;;;;;;5083256;28;20067;-81
2022/03/15 06:59:22;;;;;;;38.28;19.27;;;;;;;;;;5097920;28;20044;-82
2022/03/15 07:01:48;;;;;;;35.47;18.48;;;;;;;;;;5084861;28;20060;-81
2022/03/15 07:04:14;;;;;;;29.35;17.40;;;;;;;;;;5105218;28;20432;-81
2022/03/15 07:06:40;;;;;;;38.22;18.73;;;;;;;;;;5107439;28;20036;-81
2022/03/15 07:09:06;;;;;;;30.85;18.08;;;;;;;;;;5082935;28;20036;-82
2022/03/15 07:11:31;;;;;;;32.63;17.77;;;;;;;;;;5086898;28;20356;-82
2022/03/15 07:13:58;;;;;;;38.67;18.20;;;;;;;;;;5085386;28;20032;-83
2022/03/15 07:16:23;;;;;;;34.97;17.92;;;;;;;;;;5099937;28;20040;-82
2022/03/15 07:18:50;;;;;;;31.88;17.98;;;;;;;;;;5082694;28;20051;-83
2022/03/15 07:21:16;;;;;;;34.70;18.55;;;;;;;;;;5082939;28;20040;-84
2022/03/15 07:23:43;;;;;;;34.55;17.85;;;;;;;;;;5099005;28;20047;-81
2022/03/15 07:26:09;;;;;;;39.40;18.02;;;;;;;;;;5082057;28;20040;-82
2022/03/15 07:28:35;;;;;;;32.80;18.10;;;;;;;;;;5101758;28;20047;-81
2022/03/15 07:31:01;;;;;;;32.50;18.00;;;;;;;;;;5104961;28;20036;-81
2022/03/15 07:33:27;;;;;;;34.22;18.45;;;;;;;;;;5090769;28;20044;-80
2022/03/15 07:35:54;;;;;;;38.15;18.08;;;;;;;;;;5091107;28;20063;-81
2022/03/15 07:38:20;;;;;;;36.53;17.80;;;;;;;;;;5091510;28;20044;-81
2022/03/15 07:40:46;;;;;;;35.50;17.95;;;;;;;;;;5090764;28;20066;-80
2022/03/15 07:43:12;;;;;;;28.90;16.40;;;;;;;;;;5090163;28;20451;-80
2022/03/15 07:45:38;;;;;;;28.77;16.77;;;;;;;;;;5091165;28;20494;-81
2022/03/15 07:48:04;;;;;;;29.88;16.25;;;;;;;;;;5099856;28;20016;-80
2022/03/15 07:50:30;;;;;;;31.85;16.90;;;;;;;;;;5102795;28;20020;-80
2022/03/15 07:52:56;;;;;;;31.52;16.52;;;;;;;;;;5121416;28;20098;-80
2022/03/15 07:55:23;;;;;;;31.55;17.63;;;;;;;;;;5104162;28;20028;-80
2022/03/15 07:57:49;;;;;;;33.10;17.23;;;;;;;;;;5101853;28;20088;-81
2022/03/15 08:00:15;;;;;;;35.90;18.80;;;;;;;;;;5119184;28;20032;-82
2022/03/15 08:02:41;;;;;;;32.38;17.40;;;;;;;;;;5100673;28;20059;-81
2022/03/15 08:05:08;;;;;;;37.00;18.42;;;;;;;;;;5098139;28;20024;-81
2022/03/15 08:07:36;;;;;;;39.45;17.52;;;;;;;;;;5097554;28;20427;-82
2022/03/15 08:10:03;;;;;;;31.65;16.90;;;;;;;;;;5129792;28;20036;-82
2022/03/15 08:12:29;;;;;;;31.90;16.85;;;;;;;;;;5096296;28;20104;-82
2022/03/15 08:14:55;;;;;;;36.78;17.92;;;;;;;;;;5106322;28;20486;-82
2022/03/15 08:17:21;;;;;;;34.35;17.27;;;;;;;;;;5120200;28;20063;-82
2022/03/15 08:19:47;;;;;;;33.05;16.08;;;;;;;;;;5104770;28;20055;-82
2022/03/15 08:22:13;;;;;;;30.40;17.40;;;;;;;;;;5102498;28;20024;-82
2022/03/15 08:24:39;;;;;;;34.17;17.10;;;;;;;;;;5118115;28;20340;-82
2022/03/15 08:27:05;;;;;;;33.85;17.40;;;;;;;;;;5102208;28;20062;-80
2022/03/15 08:29:31;;;;;;;31.17;16.55;;;;;;;;;;5120417;28;20096;-81
2022/03/15 08:31:58;;;;;;;28.20;16.38;;;;;;;;;;5098708;28;20106;-82
2022/03/15 08:34:24;;;;;;;28.63;15.73;;;;;;;;;;5119305;28;20036;-83
2022/03/15 08:36:50;;;;;;;30.83;15.88;;;;;;;;;;5101580;28;20066;-82
2022/03/15 08:39:16;;;;;;;28.08;16.13;;;;;;;;;;5100751;28;20495;-82
2022/03/15 08:41:42;;;;;;;33.33;16.60;;;;;;;;;;5084742;28;20036;-81
2022/03/15 08:44:08;;;;;;;35.75;16.23;;;;;;;;;;5100426;28;20040;-82
2022/03/15 08:46:35;;;;;;;30.30;15.93;;;;;;;;;;5104318;28;20427;-81
2022/03/15 08:49:01;;;;;;;36.33;16.05;;;;;;;;;;5108014;28;20134;-83
2022/03/15 08:51:27;;;;;;;33.47;15.52;;;;;;;;;;5102530;28;20036;-82
2022/03/15 08:53:53;;;;;;;29.48;15.68;;;;;;;;;;5106911;28;20028;-81
2022/03/15 08:56:19;;;;;;;30.45;14.88;;;;;;;;;;5126452;28;20040;-82
2022/03/15 08:58:45;;;;;;;31.67;14.55;;;;;;;;;;5113747;28;20044;-82
2022/03/15 09:01:11;;;;;;;32.15;15.15;;;;;;;;;;5097831;28;20036;-83
2022/03/15 09:03:37;;;;;;;28.90;14.38;;;;;;;;;;5120705;28;20065;-82
2022/03/15 09:06:04;;;;;;;34.58;15.02;;;;;;;;;;5094734;28;20119;-82
2022/03/15 09:08:30;;;;;;;25.77;14.02;;;;;;;;;;5118470;28;20032;-82
2022/03/15 09:10:56;;;;;;;31.80;15.27;;;;;;;;;;5099927;28;20036;-81
2022/03/15 09:13:22;;;;;;;27.27;15.65;;;;;;;;;;5102553;28;20444;-82
2022/03/15 09:15:48;;;;;;;30.30;15.52;;;;;;;;;;5088663;28;20044;-82
2022/03/15 09:18:14;;;;;;;28.13;14.98;;;;;;;;;;5113889;28;20042;-82
2022/03/15 09:20:42;;;;;;;33.28;15.20;;;;;;;;;;5099622;28;20047;-81
2022/03/15 09:23:08;;;;;;;34.70;14.82;;;;;;;;;;5097675;28;20042;-82
2022/03/15 09:25:35;;;;;;;30.58;14.77;;;;;;;;;;5116175;28;20139;-82
2022/03/15 09:28:01;;;;;;;27.75;13.57;;;;;;;;;;5099724;28;20070;-81
2022/03/15 09:30:30;;;;;;;29.02;13.82;;;;;;;;;;5100131;28;20044;-82
2022/03/15 09:32:57;;;;;;;26.38;13.48;;;;;;;;;;5101269;28;20062;-82
2022/03/15 09:35:23;;;;;;;32.47;12.95;;;;;;;;;;5096362;28;20032;-83
2022/03/15 09:37:49;;;;;;;24.13;12.27;;;;;;;;;;5108289;28;20065;-81
2022/03/15 09:40:15;;;;;;;27.50;12.80;;;;;;;;;;5113679;28;20050;-82
2022/03/15 09:42:42;;;;;;;25.88;12.63;;;;;;;;;;5125745;28;20063;-81
2022/03/15 09:45:08;;;;;;;24.75;12.10;;;;;;;;;;5114593;28;20114;-82
2022/03/15 09:47:35;;;;;;;18.13;11.52;;;;;;;;;;5128346;28;20032;-80
2022/03/15 09:50:02;;;;;;;23.20;11.35;;;;;;;;;;5109591;28;20063;-82
2022/03/15 09:52:28;;;;;;;23.95;12.13;;;;;;;;;;5106470;28;20363;-82
2022/03/15 09:54:54;;;;;;;25.65;11.18;;;;;;;;;;5094029;28;20047;-83
2022/03/15 09:57:20;;;;;;;22.33;12.00;;;;;;;;;;5119933;28;20040;-82
2022/03/15 09:59:47;;;;;;;25.25;12.50;;;;;;;;;;5109335;28;20045;-82
2022/03/15 10:02:13;;;;;;;21.38;11.15;;;;;;;;;;5115154;28;20051;-82
2022/03/15 10:04:39;;;;;;;25.77;11.93;;;;;;;;;;5116477;28;20032;-80
2022/03/15 10:07:08;;;;;;;24.95;12.80;;;;;;;;;;5096506;28;20111;-80
2022/03/15 10:09:34;;;;;;;24.20;13.82;;;;;;;;;;5098436;28;20087;-81
2022/03/15 10:12:00;;;;;;;25.88;12.95;;;;;;;;;;5102147;28;20055;-82
2022/03/15 10:14:26;;;;;;;28.58;12.65;;;;;;;;;;5111035;28;20039;-81
2022/03/15 10:16:52;;;;;;;27.30;12.65;;;;;;;;;;5097889;28;20096;-81
2022/03/15 10:19:19;;;;;;;28.33;12.48;;;;;;;;;;5114940;28;20028;-81
2022/03/15 10:21:52;;;;;;;22.77;11.90;;;;;;;;;;5098417;28;20763;-82
2022/03/15 10:24:19;;;;;;;23.92;11.90;;;;;;;;;;5087290;28;20122;-80
2022/03/15 10:26:46;;;;;;;24.30;12.00;;;;;;;;;;5088537;28;20035;-81
2022/03/15 10:29:13;;;;;;;23.67;11.85;;;;;;;;;;5102377;28;20040;-82
2022/03/15 10:31:39;;;;;;;28.60;12.23;;;;;;;;;;5120001;28;20032;-82
2022/03/15 10:34:07;;;;;;;24.63;10.93;;;;;;;;;;5119654;28;20036;-82
2022/03/15 10:36:53;;;;;;;20.08;10.93;;;;;;;;;;5120158;28;20047;-82
2022/03/15 10:39:19;;;;;;;19.23;11.10;;;;;;;;;;5120225;28;20040;-83
2022/03/15 10:41:46;;;;;;;24.25;9.90;;;;;;;;;;5119669;28;20031;-82
2022/03/15 10:44:16;;;;;;;19.50;9.45;;;;;;;;;;5101982;28;20035;-83
2022/03/15 10:46:42;;;;;;;22.77;9.25;;;;;;;;;;5119321;28;20031;-83
2022/03/15 10:49:08;;;;;;;19.63;8.75;;;;;;;;;;5118846;28;20496;-82
2022/03/15 10:51:34;;;;;;;18.58;8.95;;;;;;;;;;5101918;28;20409;-82
2022/03/15 10:54:03;;;;;;;17.67;9.50;;;;;;;;;;5118963;28;20046;-83
2022/03/15 10:56:29;;;;;;;20.75;8.90;;;;;;;;;;5120122;28;20035;-82
2022/03/15 10:59:03;;;;;;;19.13;8.93;;;;;;;;;;5102324;28;20043;-83
2022/03/15 11:01:30;;;;;;;20.92;8.50;;;;;;;;;;5118609;28;20062;-83
2022/03/15 11:03:56;;;;;;;19.20;8.40;;;;;;;;;;5118835;28;20336;-83
2022/03/15 11:06:30;;;;;;;21.98;8.93;;;;;;;;;;5128242;28;20371;-82
2022/03/15 11:08:56;;;;;;;21.65;9.00;;;;;;;;;;5104110;28;20046;-83
2022/03/15 11:11:25;;;;;;;14.80;8.45;;;;;;;;;;5119069;28;20359;-83
2022/03/15 11:13:58;;;;;;;17.17;8.27;;;;;;;;;;5118352;28;20039;-83
2022/03/15 11:16:24;;;;;;;18.58;8.40;;;;;;;;;;5117887;28;20139;-83
2022/03/15 11:18:50;;;;;;;17.08;8.43;;;;;;;;;;5101632;28;20048;-83
2022/03/15 11:21:17;;;;;;;17.27;8.38;;;;;;;;;;5091951;28;20055;-82
2022/03/15 11:23:43;;;;;;;17.23;8.18;;;;;;;;;;5103204;28;20084;-82
2022/03/15 11:26:09;;;;;;;20.75;8.82;;;;;;;;;;5085087;28;20043;-84
2022/03/15 11:28:38;;;;;;;19.40;9.00;;;;;;;;;;5101825;28;20036;-83
2022/03/15 11:31:04;;;;;;;21.35;8.55;;;;;;;;;;5085040;28;20036;-83
2022/03/15 11:33:31;;;;;;;17.65;8.60;;;;;;;;;;5085024;28;20042;-83
2022/03/15 11:35:57;;;;;;;18.25;8.90;;;;;;;;;;5086718;28;20039;-83
2022/03/15 11:38:23;;;;;;;17.73;9.07;;;;;;;;;;5086083;28;20051;-83
2022/03/15 11:40:54;;;;;;;16.13;8.80;;;;;;;;;;5103433;28;20058;-82
2022/03/15 11:43:28;;;;;;;21.25;9.32;;;;;;;;;;5103115;28;20077;-82
2022/03/15 11:46:03;;;;;;;18.23;9.23;;;;;;;;;;5086694;28;20123;-82
2022/03/15 11:48:48;;;;;;;20.75;9.27;;;;;;;;;;5087385;28;20051;-80
2022/03/15 11:51:33;;;;;;;20.55;9.60;;;;;;;;;;5115938;28;20040;-79
2022/03/15 11:54:04;;;;;;;20.05;9.18;;;;;;;;;;5116586;28;20047;-80
2022/03/15 11:56:36;;;;;;;16.27;9.10;;;;;;;;;;5108195;28;20055;-81
2022/03/15 11:59:02;;;;;;;15.90;8.95;;;;;;;;;;5105828;28;20100;-81
2022/03/15 12:01:30;;;;;;;16.08;8.82;;;;;;;;;;5103161;28;20055;-82
2022/03/15 12:03:57;;;;;;;17.73;8.57;;;;;;;;;;5105407;28;20512;-81
2022/03/15 12:06:24;;;;;;;19.48;9.35;;;;;;;;;;5109298;28;20036;-82
2022/03/15 12:08:53;;;;;;;21.17;9.90;;;;;;;;;;5097449;28;20040;-80
2022/03/15 12:11:49;;;;;;;22.35;9.60;;;;;;;;;;5110531;28;20096;-82
2022/03/15 12:14:19;;;;;;;21.65;9.60;;;;;;;;;;5099131;28;20043;-81
2022/03/15 12:16:47;;;;;;;22.58;10.40;;;;;;;;;;5089032;28;20036;-81
2022/03/15 12:19:39;;;;;;;21.80;9.75;;;;;;;;;;5106266;28;20437;-82
2022/03/15 12:22:09;;;;;;;25.20;11.75;;;;;;;;;;5107712;28;20066;-82
2022/03/15 12:24:36;;;;;;;23.48;10.20;;;;;;;;;;5087429;28;20067;-83
2022/03/15 12:27:06;;;;;;;20.02;10.63;;;;;;;;;;5087015;28;20360;-82
2022/03/15 12:29:32;;;;;;;24.35;10.65;;;;;;;;;;5106651;28;20092;-82
2022/03/15 12:31:58;;;;;;;21.55;10.68;;;;;;;;;;5085697;28;20090;-82
2022/03/15 12:34:25;;;;;;;15.10;8.38;;;;;;;;;;5084646;28;20057;-82
2022/03/15 12:36:53;;;;;;;20.98;9.98;;;;;;;;;;5085095;28;20038;-82
2022/03/15 12:39:20;;;;;;;10.75;4.90;;;;;;;;;;5102628;28;20039;-82
2022/03/15 12:41:47;;;;;;;9.48;5.18;;;;;;;;;;5091967;28;20044;-83
2022/03/15 12:44:13;;;;;;;10.88;5.22;;;;;;;;;;5092612;28;20040;-82
2022/03/15 12:46:39;;;;;;;8.85;4.90;;;;;;;;;;5107813;28;20043;-82
2022/03/15 12:49:05;;;;;;;9.20;4.68;;;;;;;;;;5092041;28;20054;-83
2022/03/15 12:51:37;;;;;;;9.65;4.90;;;;;;;;;;5110368;28;20070;-82
2022/03/15 12:54:07;;;;;;;11.00;5.05;;;;;;;;;;5091740;28;20063;-82
2022/03/15 12:56:33;;;;;;;7.90;4.47;;;;;;;;;;5091912;28;20055;-83
2022/03/15 12:58:59;;;;;;;9.02;5.45;;;;;;;;;;5107302;28;20043;-83
2022/03/15 13:01:26;;;;;;;10.02;5.70;;;;;;;;;;5087640;28;20044;-82
2022/03/15 13:03:52;;;;;;;11.07;5.75;;;;;;;;;;5105718;28;20043;-82
2022/03/15 13:06:18;;;;;;;11.95;4.70;;;;;;;;;;5104685;28;20051;-83
2022/03/15 13:09:10;;;;;;;11.90;4.60;;;;;;;;;;5112823;28;20036;-82
2022/03/15 13:11:47;;;;;;;9.27;4.78;;;;;;;;;;5109031;28;20061;-84
2022/03/15 13:14:13;;;;;;;11.50;5.00;;;;;;;;;;5101418;28;20359;-82
2022/03/15 13:16:49;;;;;;;7.75;3.58;;;;;;;;;;5099369;28;20101;-84
2022/03/15 13:19:25;;;;;;;10.45;3.60;;;;;;;;;;5100843;28;20032;-83
2022/03/15 13:21:51;;;;;;;8.43;3.10;;;;;;;;;;5099193;28;20344;-83
2022/03/15 13:24:22;;;;;;;6.13;2.80;;;;;;;;;;5099638;28;20028;-83
2022/03/15 13:26:58;;;;;;;7.50;2.55;;;;;;;;;;5089257;28;20089;-84
2022/03/15 13:29:26;;;;;;;5.75;2.70;;;;;;;;;;5084390;28;20044;-84
2022/03/15 13:31:52;;;;;;;7.72;2.78;;;;;;;;;;5114197;28;20065;-83
2022/03/15 13:34:25;;;;;;;5.65;2.47;;;;;;;;;;5109929;28;20111;-83
2022/03/15 13:36:51;;;;;;;5.13;2.65;;;;;;;;;;5102100;28;20115;-83
2022/03/15 13:39:17;;;;;;;5.15;2.60;;;;;;;;;;5085681;28;20043;-83
2022/03/15 13:41:50;;;;;;;10.57;3.00;;;;;;;;;;5084307;28;20024;-84
2022/03/15 13:44:23;;;;;;;6.28;2.60;;;;;;;;;;5085097;28;20040;-84
2022/03/15 13:46:51;;;;;;;;;;;;;;;;;;5085390;28;20036;-85
2022/03/15 13:49:17;;;;;;;6.00;2.60;;;;;;;;;;5102053;28;19931;-83
2022/03/15 13:51:44;;;;;;;6.03;2.13;;;;;;;;;;5101411;28;20036;-83
2022/03/15 13:54:14;;;;;;;8.32;2.60;;;;;;;;;;5102952;28;20036;-83
2022/03/15 13:56:43;;;;;;;8.07;2.95;;;;;;;;;;5102673;28;20040;-83
2022/03/15 13:59:09;;;;;;;8.52;2.70;;;;;;;;;;5086098;28;20040;-83
2022/03/15 14:01:39;;;;;;;6.13;2.60;;;;;;;;;;5084489;28;20126;-82
2022/03/15 14:04:09;;;;;;;6.40;2.95;;;;;;;;;;5100630;28;20414;-83
2022/03/15 14:06:39;;;;;;;8.45;2.60;;;;;;;;;;5084321;28;20055;-84
2022/03/15 14:09:05;;;;;;;6.97;3.10;;;;;;;;;;5101825;28;20032;-84
2022/03/15 14:11:40;;;;;;;9.85;2.90;;;;;;;;;;5101639;28;20110;-82
2022/03/15 14:14:08;;;;;;;6.30;2.38;;;;;;;;;;5101659;28;20379;-83
2022/03/15 14:16:42;;;;;;;7.68;2.80;;;;;;;;;;5100628;28;20040;-83
2022/03/15 14:19:19;;;;;;;7.15;2.97;;;;;;;;;;5101119;28;20050;-84
2022/03/15 14:21:49;;;;;;;6.13;2.67;;;;;;;;;;5102687;28;20051;-84